Main page
METAR-TAF:

METAR-TAF

Airports :

Nouakchott–Oumtounsy International Airport

Nouakchott, Mauritania

latitude: 18-18-36N, longitude: 015-58-11W, elevation: 3 m

Current weather observation

The report was made 28 minutes ago, at 01:30 UTC
Wind 6 kt from the North/Northwest
Temperature 17°C
Humidity 94%
Pressure 1013 hPa
Visibility: 6000 m

METAR: GQNO 190130Z 33006KT 6000 NSC 17/16 Q1013 BECMG 4500 BR

Time: 01:58 (01:58 UTC)

Forecast

The report was made 2 hours and 58 minutes ago, at 23:00 UTC
Forecast valid from 19 at 00 UTC to 20 at 06 UTC
Wind 12 kt from the North/Northwest
Visibility: 8000 m
Probability 30% :
Temporary
from 19 at 03 UTC to 19 at 08 UTC
Visibility: 4000 m
mist
Probability 40% :
Temporary
from 19 at 08 UTC to 19 at 11 UTC
Wind 10 kt from the Northeast

TAF: GQNO 182300Z 1900/2006 34012KT 8000 NSC PROB30 TEMPO 1903/1908 4000 BR PROB40 TEMPO 1908/1911 04010KT

Weather observations and forecasts of more than 4000 airports (METAR and TAF reports).

The available stations are represented by yellow and red dots on the map.

Hover mouse over dot to see the name of the station.

Then click to see weather observations and forecasts.

To change the map : click on the green buttons with a black cross to zoom in, on the green button with a dash to zoom out, or on the green arrows for adjacent maps.


METAR-TAF: